Newton Aycliffe, United Kingdom
Current Conditions -  °F | °C
As of 2:20 PM on Tuesday 21 Oct 2014 (Local Time) from EGNV Reporting Station
Few Clouds Few Clouds  
Wind Chill: 52°   Ceiling: Unl
Heat Index: 52°   Visibility: 6mi
Dew Point: 36°   Wind: 29mph
Humidity: 54%   Direction: 280°W
Pressure: 29.53"   Gusts: 45mph
Location:  54.62°N, 1.57°W
Report Text: EGNV 211320Z 28025G39KT 9999 FEW030 11/02 Q1000
Loading
Personal Weather Stations






























Interactive Weather Map
Tropical Storm Tracking
New forecast layout! Learn more

10-Day Weather Forecast

Advertisements
Track Severe Weather on mobile